sensor_id;sensor_type;location;lat;lon;timestamp;temperature;humidity
7378;DHT22;3730;50.856;12.776;2023-06-04T00:03:10;13.60;1.00
7378;DHT22;3730;50.856;12.776;2023-06-04T00:05:35;13.80;1.00
7378;DHT22;3730;50.856;12.776;2023-06-04T00:10:27;13.70;1.00
7378;DHT22;3730;50.856;12.776;2023-06-04T00:12:52;13.80;1.00
7378;DHT22;3730;50.856;12.776;2023-06-04T00:15:18;13.60;1.00
7378;DHT22;3730;50.856;12.776;2023-06-04T00:17:44;13.40;1.00
7378;DHT22;3730;50.856;12.776;2023-06-04T00:22:36;13.80;1.00
7378;DHT22;3730;50.856;12.776;2023-06-04T00:25:02;13.80;1.00
7378;DHT22;3730;50.856;12.776;2023-06-04T00:27:28;13.60;1.00
7378;DHT22;3730;50.856;12.776;2023-06-04T00:29:54;13.60;1.00
7378;DHT22;3730;50.856;12.776;2023-06-04T00:34:53;13.50;1.00
7378;DHT22;3730;50.856;12.776;2023-06-04T00:37:22;13.50;1.00
7378;DHT22;3730;50.856;12.776;2023-06-04T00:39:47;13.40;1.00
7378;DHT22;3730;50.856;12.776;2023-06-04T00:42:13;13.60;1.00
7378;DHT22;3730;50.856;12.776;2023-06-04T00:47:11;13.30;1.00
7378;DHT22;3730;50.856;12.776;2023-06-04T00:49:38;13.00;1.00
7378;DHT22;3730;50.856;12.776;2023-06-04T00:54:31;13.10;1.00
7378;DHT22;3730;50.856;12.776;2023-06-04T00:56:59;13.30;1.00
7378;DHT22;3730;50.856;12.776;2023-06-04T00:59:24;13.10;1.00
7378;DHT22;3730;50.856;12.776;2023-06-04T05:25:29;13.20;1.00
7378;DHT22;3730;50.856;12.776;2023-06-04T05:27:56;13.20;1.00
7378;DHT22;3730;50.856;12.776;2023-06-04T05:32:48;13.30;1.00
7378;DHT22;3730;50.856;12.776;2023-06-04T05:35:16;13.30;1.00
7378;DHT22;3730;50.856;12.776;2023-06-04T05:37:42;13.50;1.00
7378;DHT22;3730;50.856;12.776;2023-06-04T05:40:08;13.50;1.00
7378;DHT22;3730;50.856;12.776;2023-06-04T06:11:52;14.20;1.00
7378;DHT22;3730;50.856;12.776;2023-06-04T06:14:17;14.00;1.00
7378;DHT22;3730;50.856;12.776;2023-06-04T06:26:28;14.60;1.00
7378;DHT22;3730;50.856;12.776;2023-06-04T06:28:55;14.30;1.00
7378;DHT22;3730;50.856;12.776;2023-06-04T06:31:21;14.80;1.00
7378;DHT22;3730;50.856;12.776;2023-06-04T06:33:47;14.70;1.00
7378;DHT22;3730;50.856;12.776;2023-06-04T06:41:05;14.80;1.00
7378;DHT22;3730;50.856;12.776;2023-06-04T06:43:31;14.90;1.00
7378;DHT22;3730;50.856;12.776;2023-06-04T06:48:23;14.90;1.00
7378;DHT22;3730;50.856;12.776;2023-06-04T06:50:49;15.00;1.00
7378;DHT22;3730;50.856;12.776;2023-06-04T06:53:14;15.30;1.00
7378;DHT22;3730;50.856;12.776;2023-06-04T06:55:40;15.40;1.00
7378;DHT22;3730;50.856;12.776;2023-06-04T07:00:32;15.60;1.00
7378;DHT22;3730;50.856;12.776;2023-06-04T07:02:57;15.50;1.00
7378;DHT22;3730;50.856;12.776;2023-06-04T07:05:23;15.40;1.00
7378;DHT22;3730;50.856;12.776;2023-06-04T07:22:26;15.90;1.00
7378;DHT22;3730;50.856;12.776;2023-06-04T07:24:52;15.90;1.00
7378;DHT22;3730;50.856;12.776;2023-06-04T07:27:19;15.90;1.00
7378;DHT22;3730;50.856;12.776;2023-06-04T07:32:10;16.00;1.00
7378;DHT22;3730;50.856;12.776;2023-06-04T07:34:38;16.10;1.00
7378;DHT22;3730;50.856;12.776;2023-06-04T07:37:04;16.20;1.00
7378;DHT22;3730;50.856;12.776;2023-06-04T07:39:30;16.10;1.00
7378;DHT22;3730;50.856;12.776;2023-06-04T07:41:56;16.20;1.00
7378;DHT22;3730;50.856;12.776;2023-06-04T07:44:22;16.10;1.00
7378;DHT22;3730;50.856;12.776;2023-06-04T07:46:48;16.10;1.00
7378;DHT22;3730;50.856;12.776;2023-06-04T07:49:14;16.30;1.00
7378;DHT22;3730;50.856;12.776;2023-06-04T07:51:39;16.10;1.00
7378;DHT22;3730;50.856;12.776;2023-06-04T07:54:05;16.40;1.00
7378;DHT22;3730;50.856;12.776;2023-06-04T07:56:31;16.50;1.00
7378;DHT22;3730;50.856;12.776;2023-06-04T08:03:49;16.60;1.00
7378;DHT22;3730;50.856;12.776;2023-06-04T08:06:15;16.50;1.00
7378;DHT22;3730;50.856;12.776;2023-06-04T08:08:45;16.70;1.00
7378;DHT22;3730;50.856;12.776;2023-06-04T08:11:14;16.90;1.00
7378;DHT22;3730;50.856;12.776;2023-06-04T08:16:07;17.00;1.00
7378;DHT22;3730;50.856;12.776;2023-06-04T08:18:33;16.80;1.00
7378;DHT22;3730;50.856;12.776;2023-06-04T08:20:58;17.10;1.00
7378;DHT22;3730;50.856;12.776;2023-06-04T08:23:24;17.10;1.00
7378;DHT22;3730;50.856;12.776;2023-06-04T08:25:49;17.40;1.00
7378;DHT22;3730;50.856;12.776;2023-06-04T08:28:15;17.10;1.00
7378;DHT22;3730;50.856;12.776;2023-06-04T08:30:42;17.10;1.00
7378;DHT22;3730;50.856;12.776;2023-06-04T08:33:08;17.20;1.00
7378;DHT22;3730;50.856;12.776;2023-06-04T08:35:33;17.20;1.00
7378;DHT22;3730;50.856;12.776;2023-06-04T08:37:59;17.50;1.00
7378;DHT22;3730;50.856;12.776;2023-06-04T08:40:25;17.20;1.00
7378;DHT22;3730;50.856;12.776;2023-06-04T08:42:51;17.50;1.00
7378;DHT22;3730;50.856;12.776;2023-06-04T08:45:23;17.70;1.00
7378;DHT22;3730;50.856;12.776;2023-06-04T08:47:50;17.60;1.00
7378;DHT22;3730;50.856;12.776;2023-06-04T08:50:21;17.60;1.00
7378;DHT22;3730;50.856;12.776;2023-06-04T08:55:14;17.80;1.00
7378;DHT22;3730;50.856;12.776;2023-06-04T08:57:40;17.80;1.00
7378;DHT22;3730;50.856;12.776;2023-06-04T09:00:07;17.90;1.00
7378;DHT22;3730;50.856;12.776;2023-06-04T09:02:35;17.90;1.00
7378;DHT22;3730;50.856;12.776;2023-06-04T09:05:03;17.90;1.00
7378;DHT22;3730;50.856;12.776;2023-06-04T09:07:30;17.90;1.00
7378;DHT22;3730;50.856;12.776;2023-06-04T09:09:56;17.90;1.00
7378;DHT22;3730;50.856;12.776;2023-06-04T09:12:24;18.00;1.00
7378;DHT22;3730;50.856;12.776;2023-06-04T09:14:50;18.20;1.00
7378;DHT22;3730;50.856;12.776;2023-06-04T09:17:24;18.00;1.00
7378;DHT22;3730;50.856;12.776;2023-06-04T09:19:51;18.10;1.00
7378;DHT22;3730;50.856;12.776;2023-06-04T09:22:17;18.10;1.00
7378;DHT22;3730;50.856;12.776;2023-06-04T09:24:44;18.10;1.00
7378;DHT22;3730;50.856;12.776;2023-06-04T09:27:19;18.10;1.00
7378;DHT22;3730;50.856;12.776;2023-06-04T09:30:04;18.20;1.00
7378;DHT22;3730;50.856;12.776;2023-06-04T09:32:30;18.20;1.00
7378;DHT22;3730;50.856;12.776;2023-06-04T09:35:10;18.20;1.00
7378;DHT22;3730;50.856;12.776;2023-06-04T09:37:37;18.40;1.00
7378;DHT22;3730;50.856;12.776;2023-06-04T09:40:03;18.30;1.00
7378;DHT22;3730;50.856;12.776;2023-06-04T09:42:30;18.50;1.00
7378;DHT22;3730;50.856;12.776;2023-06-04T09:44:56;18.50;1.00
7378;DHT22;3730;50.856;12.776;2023-06-04T09:47:23;18.60;1.00
7378;DHT22;3730;50.856;12.776;2023-06-04T09:49:49;18.60;1.00
7378;DHT22;3730;50.856;12.776;2023-06-04T09:52:16;18.60;1.00
7378;DHT22;3730;50.856;12.776;2023-06-04T09:54:42;18.70;1.00
7378;DHT22;3730;50.856;12.776;2023-06-04T09:57:18;18.60;1.00
7378;DHT22;3730;50.856;12.776;2023-06-04T09:59:45;18.70;1.00
7378;DHT22;3730;50.856;12.776;2023-06-04T10:54:06;18.80;1.00
7378;DHT22;3730;50.856;12.776;2023-06-04T10:56:33;20.10;1.00
7378;DHT22;3730;50.856;12.776;2023-06-04T10:59:14;20.20;1.00
7378;DHT22;3730;50.856;12.776;2023-06-04T11:01:40;20.30;1.00
7378;DHT22;3730;50.856;12.776;2023-06-04T11:04:05;20.40;1.00
7378;DHT22;3730;50.856;12.776;2023-06-04T11:06:31;20.50;1.00
7378;DHT22;3730;50.856;12.776;2023-06-04T11:09:04;20.70;1.00
7378;DHT22;3730;50.856;12.776;2023-06-04T11:11:31;20.80;1.00
7378;DHT22;3730;50.856;12.776;2023-06-04T11:18:59;21.00;1.00
7378;DHT22;3730;50.856;12.776;2023-06-04T11:21:25;21.20;1.00
7378;DHT22;3730;50.856;12.776;2023-06-04T14:06:32;21.30;1.00
7378;DHT22;3730;50.856;12.776;2023-06-04T16:47:22;26.70;1.00
7378;DHT22;3730;50.856;12.776;2023-06-04T16:49:49;23.70;1.00
7378;DHT22;3730;50.856;12.776;2023-06-04T16:52:14;23.60;1.00
7378;DHT22;3730;50.856;12.776;2023-06-04T16:54:40;23.50;1.00
7378;DHT22;3730;50.856;12.776;2023-06-04T16:57:08;23.50;1.00
7378;DHT22;3730;50.856;12.776;2023-06-04T16:59:34;23.50;1.00
7378;DHT22;3730;50.856;12.776;2023-06-04T17:01:59;23.40;1.00
7378;DHT22;3730;50.856;12.776;2023-06-04T17:04:25;23.30;1.00
7378;DHT22;3730;50.856;12.776;2023-06-04T17:06:51;23.20;1.00
7378;DHT22;3730;50.856;12.776;2023-06-04T17:09:16;23.20;1.00
7378;DHT22;3730;50.856;12.776;2023-06-04T17:11:42;23.10;1.00
7378;DHT22;3730;50.856;12.776;2023-06-04T17:14:09;23.00;1.00
7378;DHT22;3730;50.856;12.776;2023-06-04T17:16:35;22.90;1.00
7378;DHT22;3730;50.856;12.776;2023-06-04T17:19:01;22.80;1.00
7378;DHT22;3730;50.856;12.776;2023-06-04T17:21:27;22.80;1.00
7378;DHT22;3730;50.856;12.776;2023-06-04T17:23:54;21.50;1.00
7378;DHT22;3730;50.856;12.776;2023-06-04T18:05:24;22.70;1.00
7378;DHT22;3730;50.856;12.776;2023-06-04T18:07:50;21.80;1.00
7378;DHT22;3730;50.856;12.776;2023-06-04T19:08:59;21.80;1.00
7378;DHT22;3730;50.856;12.776;2023-06-04T19:11:24;20.30;1.00
7378;DHT22;3730;50.856;12.776;2023-06-04T19:18:43;20.30;1.00
7378;DHT22;3730;50.856;12.776;2023-06-04T19:21:08;20.10;1.00
7378;DHT22;3730;50.856;12.776;2023-06-04T19:23:35;20.00;1.00
7378;DHT22;3730;50.856;12.776;2023-06-04T19:26:01;20.00;1.00
7378;DHT22;3730;50.856;12.776;2023-06-04T19:28:27;19.90;1.00
7378;DHT22;3730;50.856;12.776;2023-06-04T19:30:53;19.90;1.00
7378;DHT22;3730;50.856;12.776;2023-06-04T19:33:18;19.90;1.00
7378;DHT22;3730;50.856;12.776;2023-06-04T19:35:45;19.80;1.00
7378;DHT22;3730;50.856;12.776;2023-06-04T19:38:13;19.80;1.00
7378;DHT22;3730;50.856;12.776;2023-06-04T19:40:39;19.70;1.00
7378;DHT22;3730;50.856;12.776;2023-06-04T19:43:05;19.60;1.00
7378;DHT22;3730;50.856;12.776;2023-06-04T19:45:30;19.60;1.00
7378;DHT22;3730;50.856;12.776;2023-06-04T20:51:27;19.60;1.00
7378;DHT22;3730;50.856;12.776;2023-06-04T20:53:53;18.30;1.00
7378;DHT22;3730;50.856;12.776;2023-06-04T20:56:18;18.30;1.00
7378;DHT22;3730;50.856;12.776;2023-06-04T20:58:44;18.20;1.00
7378;DHT22;3730;50.856;12.776;2023-06-04T21:01:11;18.10;1.00
7378;DHT22;3730;50.856;12.776;2023-06-04T21:03:37;18.10;1.00
7378;DHT22;3730;50.856;12.776;2023-06-04T21:06:02;18.00;1.00
7378;DHT22;3730;50.856;12.776;2023-06-04T21:08:28;17.90;1.00
7378;DHT22;3730;50.856;12.776;2023-06-04T21:10:54;17.90;1.00
7378;DHT22;3730;50.856;12.776;2023-06-04T21:13:19;17.80;1.00
7378;DHT22;3730;50.856;12.776;2023-06-04T21:15:45;20.90;1.00
7378;DHT22;3730;50.856;12.776;2023-06-04T21:18:11;17.60;1.00
7378;DHT22;3730;50.856;12.776;2023-06-04T21:20:38;17.60;1.00
7378;DHT22;3730;50.856;12.776;2023-06-04T21:23:04;17.50;1.00
7378;DHT22;3730;50.856;12.776;2023-06-04T21:25:29;17.50;1.00
7378;DHT22;3730;50.856;12.776;2023-06-04T21:27:55;17.50;1.00
7378;DHT22;3730;50.856;12.776;2023-06-04T21:47:26;17.30;1.00
7378;DHT22;3730;50.856;12.776;2023-06-04T21:49:52;17.20;1.00
7378;DHT22;3730;50.856;12.776;2023-06-04T21:52:17;17.20;1.00
7378;DHT22;3730;50.856;12.776;2023-06-04T21:57:09;17.20;1.00
7378;DHT22;3730;50.856;12.776;2023-06-04T21:59:35;17.10;1.00
7378;DHT22;3730;50.856;12.776;2023-06-04T22:02:00;17.20;1.00
7378;DHT22;3730;50.856;12.776;2023-06-04T22:04:26;17.20;1.00
7378;DHT22;3730;50.856;12.776;2023-06-04T22:06:52;17.20;1.00
7378;DHT22;3730;50.856;12.776;2023-06-04T22:09:17;17.10;1.00
7378;DHT22;3730;50.856;12.776;2023-06-04T22:11:43;17.10;1.00
7378;DHT22;3730;50.856;12.776;2023-06-04T22:14:08;17.10;1.00
7378;DHT22;3730;50.856;12.776;2023-06-04T22:16:34;17.10;1.00
7378;DHT22;3730;50.856;12.776;2023-06-04T22:19:00;17.00;1.00
7378;DHT22;3730;50.856;12.776;2023-06-04T22:21:26;17.00;1.00
7378;DHT22;3730;50.856;12.776;2023-06-04T22:23:51;17.00;1.00
7378;DHT22;3730;50.856;12.776;2023-06-04T22:26:17;16.90;1.00
7378;DHT22;3730;50.856;12.776;2023-06-04T22:28:43;16.90;1.00
7378;DHT22;3730;50.856;12.776;2023-06-04T22:31:11;16.90;1.00
7378;DHT22;3730;50.856;12.776;2023-06-04T22:33:36;16.90;1.00
7378;DHT22;3730;50.856;12.776;2023-06-04T22:36:02;16.90;1.00
7378;DHT22;3730;50.856;12.776;2023-06-04T22:38:28;16.80;1.00
7378;DHT22;3730;50.856;12.776;2023-06-04T22:40:53;16.80;1.00
7378;DHT22;3730;50.856;12.776;2023-06-04T22:43:19;16.80;1.00
7378;DHT22;3730;50.856;12.776;2023-06-04T22:45:45;16.70;1.00
7378;DHT22;3730;50.856;12.776;2023-06-04T22:48:12;16.70;1.00
7378;DHT22;3730;50.856;12.776;2023-06-04T22:50:38;16.60;1.00
7378;DHT22;3730;50.856;12.776;2023-06-04T22:53:04;16.60;1.00
